sensor_id;sensor_type;location;lat;lon;timestamp;P1;durP1;ratioP1;P2;durP2;ratioP2
45867;SDS011;31582;45.490;7.860;2023-05-21T00:01:35;0.68;;;0.40;;
45867;SDS011;31582;45.490;7.860;2023-05-21T00:04:02;1.05;;;0.40;;
45867;SDS011;31582;45.490;7.860;2023-05-21T00:06:31;0.40;;;0.30;;
45867;SDS011;31582;45.490;7.860;2023-05-21T00:09:02;2.33;;;0.52;;
45867;SDS011;31582;45.490;7.860;2023-05-21T00:11:29;0.50;;;0.40;;
45867;SDS011;31582;45.490;7.860;2023-05-21T00:13:57;1.50;;;0.60;;
45867;SDS011;31582;45.490;7.860;2023-05-21T00:16:24;0.73;;;0.30;;
45867;SDS011;31582;45.490;7.860;2023-05-21T00:18:51;0.40;;;0.30;;
45867;SDS011;31582;45.490;7.860;2023-05-21T00:21:19;1.03;;;0.30;;
45867;SDS011;31582;45.490;7.860;2023-05-21T00:23:51;1.40;;;0.30;;
45867;SDS011;31582;45.490;7.860;2023-05-21T00:26:21;0.45;;;0.30;;
45867;SDS011;31582;45.490;7.860;2023-05-21T00:28:49;1.55;;;0.57;;
45867;SDS011;31582;45.490;7.860;2023-05-21T00:31:16;2.05;;;1.00;;
45867;SDS011;31582;45.490;7.860;2023-05-21T00:33:44;1.40;;;0.30;;
45867;SDS011;31582;45.490;7.860;2023-05-21T00:36:11;0.47;;;0.22;;
45867;SDS011;31582;45.490;7.860;2023-05-21T00:38:40;0.60;;;0.20;;
45867;SDS011;31582;45.490;7.860;2023-05-21T00:41:11;0.50;;;0.20;;
45867;SDS011;31582;45.490;7.860;2023-05-21T00:43:38;1.90;;;0.20;;
45867;SDS011;31582;45.490;7.860;2023-05-21T00:46:07;0.40;;;0.20;;
45867;SDS011;31582;45.490;7.860;2023-05-21T00:48:43;0.35;;;0.20;;
45867;SDS011;31582;45.490;7.860;2023-05-21T00:51:15;0.75;;;0.30;;
45867;SDS011;31582;45.490;7.860;2023-05-21T00:53:44;1.00;;;0.50;;
45867;SDS011;31582;45.490;7.860;2023-05-21T00:56:11;0.52;;;0.25;;
45867;SDS011;31582;45.490;7.860;2023-05-21T00:58:38;0.88;;;0.30;;
45867;SDS011;31582;45.490;7.860;2023-05-21T01:01:07;1.33;;;0.32;;
45867;SDS011;31582;45.490;7.860;2023-05-21T05:30:50;0.30;;;0.20;;
45867;SDS011;31582;45.490;7.860;2023-05-21T05:33:18;1.75;;;0.28;;
45867;SDS011;31582;45.490;7.860;2023-05-21T05:35:45;0.60;;;0.20;;
45867;SDS011;31582;45.490;7.860;2023-05-21T05:38:12;0.30;;;0.20;;
45867;SDS011;31582;45.490;7.860;2023-05-21T05:40:39;0.35;;;0.30;;
45867;SDS011;31582;45.490;7.860;2023-05-21T05:43:06;0.38;;;0.20;;
45867;SDS011;31582;45.490;7.860;2023-05-21T05:45:33;0.70;;;0.30;;
45867;SDS011;31582;45.490;7.860;2023-05-21T05:48:00;0.38;;;0.20;;
45867;SDS011;31582;45.490;7.860;2023-05-21T05:50:27;0.20;;;0.10;;
45867;SDS011;31582;45.490;7.860;2023-05-21T05:52:54;0.88;;;0.20;;
45867;SDS011;31582;45.490;7.860;2023-05-21T05:55:21;0.70;;;0.20;;
45867;SDS011;31582;45.490;7.860;2023-05-21T05:57:50;1.13;;;0.30;;
45867;SDS011;31582;45.490;7.860;2023-05-21T06:00:17;1.77;;;0.30;;
45867;SDS011;31582;45.490;7.860;2023-05-21T06:02:45;0.45;;;0.15;;
45867;SDS011;31582;45.490;7.860;2023-05-21T06:05:13;0.85;;;0.40;;
45867;SDS011;31582;45.490;7.860;2023-05-21T06:07:40;1.98;;;0.20;;
45867;SDS011;31582;45.490;7.860;2023-05-21T06:10:07;0.35;;;0.20;;
45867;SDS011;31582;45.490;7.860;2023-05-21T06:12:35;0.90;;;0.20;;
45867;SDS011;31582;45.490;7.860;2023-05-21T06:15:02;0.90;;;0.20;;
45867;SDS011;31582;45.490;7.860;2023-05-21T06:17:29;0.50;;;0.20;;
45867;SDS011;31582;45.490;7.860;2023-05-21T06:19:57;1.20;;;0.30;;
45867;SDS011;31582;45.490;7.860;2023-05-21T06:22:23;1.48;;;0.30;;
45867;SDS011;31582;45.490;7.860;2023-05-21T06:24:51;1.90;;;0.30;;
45867;SDS011;31582;45.490;7.860;2023-05-21T06:27:18;0.30;;;0.20;;
45867;SDS011;31582;45.490;7.860;2023-05-21T06:29:44;0.30;;;0.20;;
45867;SDS011;31582;45.490;7.860;2023-05-21T06:32:11;0.20;;;0.10;;
45867;SDS011;31582;45.490;7.860;2023-05-21T06:34:38;0.20;;;0.10;;
45867;SDS011;31582;45.490;7.860;2023-05-21T06:37:06;0.20;;;0.20;;
45867;SDS011;31582;45.490;7.860;2023-05-21T06:39:33;0.30;;;0.20;;
45867;SDS011;31582;45.490;7.860;2023-05-21T06:42:00;0.43;;;0.20;;
45867;SDS011;31582;45.490;7.860;2023-05-21T06:44:26;0.40;;;0.20;;
45867;SDS011;31582;45.490;7.860;2023-05-21T06:46:53;0.50;;;0.20;;
45867;SDS011;31582;45.490;7.860;2023-05-21T06:49:20;0.20;;;0.20;;
45867;SDS011;31582;45.490;7.860;2023-05-21T06:51:47;1.38;;;0.30;;
45867;SDS011;31582;45.490;7.860;2023-05-21T06:54:14;0.70;;;0.40;;
45867;SDS011;31582;45.490;7.860;2023-05-21T06:56:41;0.40;;;0.20;;
45867;SDS011;31582;45.490;7.860;2023-05-21T06:59:08;0.50;;;0.30;;
45867;SDS011;31582;45.490;7.860;2023-05-21T07:01:36;1.20;;;0.40;;
45867;SDS011;31582;45.490;7.860;2023-05-21T07:04:02;1.10;;;0.20;;
45867;SDS011;31582;45.490;7.860;2023-05-21T07:06:29;1.05;;;0.30;;
45867;SDS011;31582;45.490;7.860;2023-05-21T07:08:57;0.43;;;0.30;;
45867;SDS011;31582;45.490;7.860;2023-05-21T07:11:24;0.70;;;0.20;;
45867;SDS011;31582;45.490;7.860;2023-05-21T07:13:56;1.40;;;0.40;;
45867;SDS011;31582;45.490;7.860;2023-05-21T07:16:24;0.35;;;0.20;;
45867;SDS011;31582;45.490;7.860;2023-05-21T07:18:50;3.00;;;0.30;;
45867;SDS011;31582;45.490;7.860;2023-05-21T07:21:17;0.82;;;0.20;;
45867;SDS011;31582;45.490;7.860;2023-05-21T07:23:44;1.05;;;0.40;;
45867;SDS011;31582;45.490;7.860;2023-05-21T07:26:11;0.43;;;0.22;;
45867;SDS011;31582;45.490;7.860;2023-05-21T07:28:38;1.00;;;0.30;;
45867;SDS011;31582;45.490;7.860;2023-05-21T07:31:05;1.48;;;0.40;;
45867;SDS011;31582;45.490;7.860;2023-05-21T07:33:33;0.30;;;0.30;;
45867;SDS011;31582;45.490;7.860;2023-05-21T07:36:01;0.40;;;0.30;;
45867;SDS011;31582;45.490;7.860;2023-05-21T07:38:27;0.57;;;0.30;;
45867;SDS011;31582;45.490;7.860;2023-05-21T07:40:54;0.90;;;0.40;;
45867;SDS011;31582;45.490;7.860;2023-05-21T07:43:22;0.70;;;0.30;;
45867;SDS011;31582;45.490;7.860;2023-05-21T07:45:49;0.50;;;0.30;;
45867;SDS011;31582;45.490;7.860;2023-05-21T07:48:17;0.40;;;0.20;;
45867;SDS011;31582;45.490;7.860;2023-05-21T07:50:44;1.25;;;0.20;;
45867;SDS011;31582;45.490;7.860;2023-05-21T07:53:14;0.70;;;0.30;;
45867;SDS011;31582;45.490;7.860;2023-05-21T07:55:41;0.40;;;0.28;;
45867;SDS011;31582;45.490;7.860;2023-05-21T07:58:14;0.90;;;0.30;;
45867;SDS011;31582;45.490;7.860;2023-05-21T08:00:42;0.80;;;0.30;;
45867;SDS011;31582;45.490;7.860;2023-05-21T08:03:13;0.70;;;0.30;;
45867;SDS011;31582;45.490;7.860;2023-05-21T08:05:43;0.75;;;0.30;;
45867;SDS011;31582;45.490;7.860;2023-05-21T08:08:17;0.63;;;0.38;;
45867;SDS011;31582;45.490;7.860;2023-05-21T08:10:45;0.53;;;0.40;;
45867;SDS011;31582;45.490;7.860;2023-05-21T08:13:14;0.83;;;0.40;;
45867;SDS011;31582;45.490;7.860;2023-05-21T08:15:41;0.70;;;0.40;;
45867;SDS011;31582;45.490;7.860;2023-05-21T08:18:09;1.15;;;0.30;;
45867;SDS011;31582;45.490;7.860;2023-05-21T08:20:37;1.20;;;0.40;;
45867;SDS011;31582;45.490;7.860;2023-05-21T08:23:04;1.10;;;0.30;;
45867;SDS011;31582;45.490;7.860;2023-05-21T08:25:31;0.60;;;0.30;;
45867;SDS011;31582;45.490;7.860;2023-05-21T08:27:58;0.70;;;0.40;;
45867;SDS011;31582;45.490;7.860;2023-05-21T08:30:25;0.57;;;0.40;;
45867;SDS011;31582;45.490;7.860;2023-05-21T08:32:52;2.15;;;0.85;;
45867;SDS011;31582;45.490;7.860;2023-05-21T08:35:20;1.87;;;0.67;;
45867;SDS011;31582;45.490;7.860;2023-05-21T08:37:47;1.55;;;0.70;;
45867;SDS011;31582;45.490;7.860;2023-05-21T08:40:14;1.20;;;0.40;;
45867;SDS011;31582;45.490;7.860;2023-05-21T08:42:42;0.70;;;0.30;;
45867;SDS011;31582;45.490;7.860;2023-05-21T08:45:12;0.98;;;0.40;;
45867;SDS011;31582;45.490;7.860;2023-05-21T08:47:41;1.58;;;0.50;;
45867;SDS011;31582;45.490;7.860;2023-05-21T08:50:12;0.75;;;0.50;;
45867;SDS011;31582;45.490;7.860;2023-05-21T08:52:41;1.20;;;0.43;;
45867;SDS011;31582;45.490;7.860;2023-05-21T08:55:08;0.95;;;0.63;;
45867;SDS011;31582;45.490;7.860;2023-05-21T08:57:35;0.70;;;0.50;;
45867;SDS011;31582;45.490;7.860;2023-05-21T09:00:03;1.17;;;0.40;;
45867;SDS011;31582;45.490;7.860;2023-05-21T09:02:32;1.17;;;0.40;;
45867;SDS011;31582;45.490;7.860;2023-05-21T09:05:00;0.60;;;0.50;;
45867;SDS011;31582;45.490;7.860;2023-05-21T09:07:28;0.77;;;0.52;;
45867;SDS011;31582;45.490;7.860;2023-05-21T09:10:03;1.00;;;0.50;;
45867;SDS011;31582;45.490;7.860;2023-05-21T09:12:35;1.23;;;0.40;;
45867;SDS011;31582;45.490;7.860;2023-05-21T09:15:02;0.70;;;0.40;;
45867;SDS011;31582;45.490;7.860;2023-05-21T09:17:30;0.47;;;0.32;;
45867;SDS011;31582;45.490;7.860;2023-05-21T09:20:04;1.23;;;0.40;;
45867;SDS011;31582;45.490;7.860;2023-05-21T09:22:45;1.00;;;0.40;;
45867;SDS011;31582;45.490;7.860;2023-05-21T09:25:17;0.63;;;0.40;;
45867;SDS011;31582;45.490;7.860;2023-05-21T09:27:54;1.40;;;0.52;;
45867;SDS011;31582;45.490;7.860;2023-05-21T09:30:22;1.50;;;0.40;;
45867;SDS011;31582;45.490;7.860;2023-05-21T09:32:57;0.95;;;0.40;;
45867;SDS011;31582;45.490;7.860;2023-05-21T09:35:25;1.13;;;0.40;;
45867;SDS011;31582;45.490;7.860;2023-05-21T09:37:52;1.38;;;0.70;;
45867;SDS011;31582;45.490;7.860;2023-05-21T09:40:20;0.55;;;0.50;;
45867;SDS011;31582;45.490;7.860;2023-05-21T09:42:49;1.83;;;0.50;;
45867;SDS011;31582;45.490;7.860;2023-05-21T09:45:20;0.68;;;0.40;;
45867;SDS011;31582;45.490;7.860;2023-05-21T09:47:49;1.42;;;0.50;;
45867;SDS011;31582;45.490;7.860;2023-05-21T09:50:18;0.80;;;0.40;;
45867;SDS011;31582;45.490;7.860;2023-05-21T09:52:50;0.80;;;0.47;;
45867;SDS011;31582;45.490;7.860;2023-05-21T09:55:21;0.52;;;0.50;;
45867;SDS011;31582;45.490;7.860;2023-05-21T09:57:50;1.40;;;0.60;;
45867;SDS011;31582;45.490;7.860;2023-05-21T10:00:18;1.08;;;0.40;;
45867;SDS011;31582;45.490;7.860;2023-05-21T10:02:53;1.10;;;0.40;;
45867;SDS011;31582;45.490;7.860;2023-05-21T10:05:24;0.85;;;0.50;;
45867;SDS011;31582;45.490;7.860;2023-05-21T10:08:01;1.73;;;0.47;;
45867;SDS011;31582;45.490;7.860;2023-05-21T10:10:30;0.75;;;0.50;;
45867;SDS011;31582;45.490;7.860;2023-05-21T10:12:59;1.23;;;0.60;;
45867;SDS011;31582;45.490;7.860;2023-05-21T10:15:30;1.13;;;0.65;;
45867;SDS011;31582;45.490;7.860;2023-05-21T10:18:09;1.75;;;0.60;;
45867;SDS011;31582;45.490;7.860;2023-05-21T10:20:38;1.67;;;0.60;;
45867;SDS011;31582;45.490;7.860;2023-05-21T10:23:05;1.38;;;0.88;;
45867;SDS011;31582;45.490;7.860;2023-05-21T10:25:33;0.90;;;0.50;;
45867;SDS011;31582;45.490;7.860;2023-05-21T10:28:01;0.88;;;0.68;;
45867;SDS011;31582;45.490;7.860;2023-05-21T10:30:28;0.90;;;0.47;;
45867;SDS011;31582;45.490;7.860;2023-05-21T10:32:56;1.33;;;0.70;;
45867;SDS011;31582;45.490;7.860;2023-05-21T10:35:25;1.20;;;0.60;;
45867;SDS011;31582;45.490;7.860;2023-05-21T10:37:53;1.30;;;0.60;;
45867;SDS011;31582;45.490;7.860;2023-05-21T10:40:22;0.63;;;0.52;;
45867;SDS011;31582;45.490;7.860;2023-05-21T10:56:37;1.25;;;0.77;;
45867;SDS011;31582;45.490;7.860;2023-05-21T11:01:53;1.60;;;0.75;;
45867;SDS011;31582;45.490;7.860;2023-05-21T11:04:24;1.27;;;0.65;;
45867;SDS011;31582;45.490;7.860;2023-05-21T11:06:52;1.88;;;0.60;;
45867;SDS011;31582;45.490;7.860;2023-05-21T11:09:19;1.05;;;0.60;;
45867;SDS011;31582;45.490;7.860;2023-05-21T11:11:55;1.52;;;0.80;;
45867;SDS011;31582;45.490;7.860;2023-05-21T11:14:27;1.63;;;0.60;;
45867;SDS011;31582;45.490;7.860;2023-05-21T11:19:41;1.10;;;0.80;;
45867;SDS011;31582;45.490;7.860;2023-05-21T11:22:20;1.93;;;1.00;;
45867;SDS011;31582;45.490;7.860;2023-05-21T11:24:49;1.80;;;0.70;;
45867;SDS011;31582;45.490;7.860;2023-05-21T11:27:30;0.90;;;0.55;;
45867;SDS011;31582;45.490;7.860;2023-05-21T11:29:58;1.90;;;0.60;;
45867;SDS011;31582;45.490;7.860;2023-05-21T11:32:28;0.80;;;0.60;;
45867;SDS011;31582;45.490;7.860;2023-05-21T11:34:58;0.70;;;0.50;;
45867;SDS011;31582;45.490;7.860;2023-05-21T11:37:29;2.10;;;0.65;;
45867;SDS011;31582;45.490;7.860;2023-05-21T11:40:17;1.73;;;0.80;;
45867;SDS011;31582;45.490;7.860;2023-05-21T11:42:49;2.00;;;0.82;;
45867;SDS011;31582;45.490;7.860;2023-05-21T11:45:18;1.00;;;0.80;;
45867;SDS011;31582;45.490;7.860;2023-05-21T11:47:47;1.17;;;0.73;;
45867;SDS011;31582;45.490;7.860;2023-05-21T11:50:15;2.43;;;0.80;;
45867;SDS011;31582;45.490;7.860;2023-05-21T11:52:45;2.40;;;1.63;;
45867;SDS011;31582;45.490;7.860;2023-05-21T11:55:12;2.50;;;1.70;;
45867;SDS011;31582;45.490;7.860;2023-05-21T11:57:41;2.08;;;1.58;;
45867;SDS011;31582;45.490;7.860;2023-05-21T12:00:14;2.20;;;1.50;;
45867;SDS011;31582;45.490;7.860;2023-05-21T12:02:45;2.55;;;1.25;;
45867;SDS011;31582;45.490;7.860;2023-05-21T12:05:17;2.45;;;1.40;;
45867;SDS011;31582;45.490;7.860;2023-05-21T12:07:47;1.40;;;0.93;;
45867;SDS011;31582;45.490;7.860;2023-05-21T12:10:15;1.88;;;1.02;;
45867;SDS011;31582;45.490;7.860;2023-05-21T12:12:46;1.58;;;0.80;;
45867;SDS011;31582;45.490;7.860;2023-05-21T12:15:22;2.45;;;1.00;;
45867;SDS011;31582;45.490;7.860;2023-05-21T12:17:50;1.30;;;0.80;;
45867;SDS011;31582;45.490;7.860;2023-05-21T12:20:18;1.20;;;0.70;;
45867;SDS011;31582;45.490;7.860;2023-05-21T12:22:47;1.85;;;0.95;;
45867;SDS011;31582;45.490;7.860;2023-05-21T12:25:16;2.60;;;0.90;;
45867;SDS011;31582;45.490;7.860;2023-05-21T12:27:47;1.30;;;0.60;;
45867;SDS011;31582;45.490;7.860;2023-05-21T12:30:18;0.93;;;0.60;;
45867;SDS011;31582;45.490;7.860;2023-05-21T12:32:45;0.70;;;0.60;;
45867;SDS011;31582;45.490;7.860;2023-05-21T12:35:20;1.92;;;0.80;;
45867;SDS011;31582;45.490;7.860;2023-05-21T12:37:50;1.88;;;0.70;;
45867;SDS011;31582;45.490;7.860;2023-05-21T12:40:17;2.67;;;1.20;;
45867;SDS011;31582;45.490;7.860;2023-05-21T12:42:45;1.30;;;1.13;;
45867;SDS011;31582;45.490;7.860;2023-05-21T12:45:12;1.83;;;0.85;;
45867;SDS011;31582;45.490;7.860;2023-05-21T12:47:39;1.50;;;1.05;;
45867;SDS011;31582;45.490;7.860;2023-05-21T12:50:07;3.28;;;1.50;;
45867;SDS011;31582;45.490;7.860;2023-05-21T12:52:38;1.58;;;0.80;;
45867;SDS011;31582;45.490;7.860;2023-05-21T12:55:08;3.08;;;1.00;;
45867;SDS011;31582;45.490;7.860;2023-05-21T12:57:38;1.75;;;0.85;;
45867;SDS011;31582;45.490;7.860;2023-05-21T13:00:05;1.50;;;0.95;;
45867;SDS011;31582;45.490;7.860;2023-05-21T13:02:34;1.50;;;0.93;;
45867;SDS011;31582;45.490;7.860;2023-05-21T13:05:09;1.60;;;1.10;;
45867;SDS011;31582;45.490;7.860;2023-05-21T13:07:42;1.70;;;0.93;;
45867;SDS011;31582;45.490;7.860;2023-05-21T13:10:13;1.92;;;0.93;;
45867;SDS011;31582;45.490;7.860;2023-05-21T13:12:42;1.98;;;1.05;;
45867;SDS011;31582;45.490;7.860;2023-05-21T13:15:10;1.70;;;0.60;;
45867;SDS011;31582;45.490;7.860;2023-05-21T13:17:37;1.17;;;0.90;;
45867;SDS011;31582;45.490;7.860;2023-05-21T13:22:48;1.10;;;0.80;;
45867;SDS011;31582;45.490;7.860;2023-05-21T13:25:17;1.08;;;0.80;;
45867;SDS011;31582;45.490;7.860;2023-05-21T13:27:50;1.23;;;0.77;;
45867;SDS011;31582;45.490;7.860;2023-05-21T13:30:18;1.55;;;1.08;;
45867;SDS011;31582;45.490;7.860;2023-05-21T13:32:46;2.00;;;1.10;;
45867;SDS011;31582;45.490;7.860;2023-05-21T13:35:14;2.00;;;1.10;;
45867;SDS011;31582;45.490;7.860;2023-05-21T13:37:42;1.47;;;1.03;;
45867;SDS011;31582;45.490;7.860;2023-05-21T13:40:12;2.90;;;1.70;;
45867;SDS011;31582;45.490;7.860;2023-05-21T13:42:44;2.55;;;1.40;;
45867;SDS011;31582;45.490;7.860;2023-05-21T13:45:13;3.05;;;1.40;;
45867;SDS011;31582;45.490;7.860;2023-05-21T13:47:42;2.40;;;1.85;;
45867;SDS011;31582;45.490;7.860;2023-05-21T13:50:12;1.90;;;1.30;;
45867;SDS011;31582;45.490;7.860;2023-05-21T13:52:39;2.70;;;1.00;;
45867;SDS011;31582;45.490;7.860;2023-05-21T13:55:07;1.57;;;1.07;;
45867;SDS011;31582;45.490;7.860;2023-05-21T13:57:34;1.50;;;0.80;;
45867;SDS011;31582;45.490;7.860;2023-05-21T14:00:02;1.77;;;0.98;;
45867;SDS011;31582;45.490;7.860;2023-05-21T14:02:30;1.08;;;0.85;;
45867;SDS011;31582;45.490;7.860;2023-05-21T14:04:56;1.50;;;0.90;;
45867;SDS011;31582;45.490;7.860;2023-05-21T14:07:24;2.67;;;1.20;;
45867;SDS011;31582;45.490;7.860;2023-05-21T14:09:51;1.65;;;1.30;;
45867;SDS011;31582;45.490;7.860;2023-05-21T14:12:18;1.80;;;1.43;;
45867;SDS011;31582;45.490;7.860;2023-05-21T14:14:45;3.22;;;1.55;;
45867;SDS011;31582;45.490;7.860;2023-05-21T14:17:15;1.92;;;1.38;;
45867;SDS011;31582;45.490;7.860;2023-05-21T14:19:42;1.75;;;1.65;;
45867;SDS011;31582;45.490;7.860;2023-05-21T14:22:09;2.55;;;2.00;;
45867;SDS011;31582;45.490;7.860;2023-05-21T14:24:36;1.85;;;1.52;;
45867;SDS011;31582;45.490;7.860;2023-05-21T14:27:03;2.92;;;1.85;;
45867;SDS011;31582;45.490;7.860;2023-05-21T14:29:30;3.63;;;1.88;;
45867;SDS011;31582;45.490;7.860;2023-05-21T14:31:58;3.40;;;2.30;;
45867;SDS011;31582;45.490;7.860;2023-05-21T14:34:25;3.60;;;2.60;;
45867;SDS011;31582;45.490;7.860;2023-05-21T14:36:52;4.10;;;2.42;;
45867;SDS011;31582;45.490;7.860;2023-05-21T14:39:19;3.17;;;2.23;;
45867;SDS011;31582;45.490;7.860;2023-05-21T14:41:45;2.80;;;2.10;;
45867;SDS011;31582;45.490;7.860;2023-05-21T14:44:12;2.80;;;2.17;;
45867;SDS011;31582;45.490;7.860;2023-05-21T14:46:39;3.50;;;2.30;;
45867;SDS011;31582;45.490;7.860;2023-05-21T14:49:07;3.25;;;2.03;;
45867;SDS011;31582;45.490;7.860;2023-05-21T14:51:34;3.30;;;2.60;;
45867;SDS011;31582;45.490;7.860;2023-05-21T14:54:01;3.13;;;2.72;;
45867;SDS011;31582;45.490;7.860;2023-05-21T14:56:27;3.40;;;2.20;;
45867;SDS011;31582;45.490;7.860;2023-05-21T14:58:54;4.28;;;2.92;;
45867;SDS011;31582;45.490;7.860;2023-05-21T15:01:21;2.47;;;1.75;;
45867;SDS011;31582;45.490;7.860;2023-05-21T15:03:49;2.05;;;1.80;;
45867;SDS011;31582;45.490;7.860;2023-05-21T15:06:16;1.63;;;1.20;;
45867;SDS011;31582;45.490;7.860;2023-05-21T15:08:43;1.60;;;1.20;;
45867;SDS011;31582;45.490;7.860;2023-05-21T15:11:10;1.90;;;1.40;;
45867;SDS011;31582;45.490;7.860;2023-05-21T15:13:37;2.42;;;1.60;;
45867;SDS011;31582;45.490;7.860;2023-05-21T15:16:04;3.15;;;1.40;;
45867;SDS011;31582;45.490;7.860;2023-05-21T15:18:32;2.85;;;1.50;;
45867;SDS011;31582;45.490;7.860;2023-05-21T15:21:01;3.72;;;1.85;;
45867;SDS011;31582;45.490;7.860;2023-05-21T15:23:28;2.00;;;1.90;;
45867;SDS011;31582;45.490;7.860;2023-05-21T15:25:55;2.85;;;1.98;;
45867;SDS011;31582;45.490;7.860;2023-05-21T15:28:22;2.80;;;1.83;;
45867;SDS011;31582;45.490;7.860;2023-05-21T15:30:49;2.80;;;1.90;;
45867;SDS011;31582;45.490;7.860;2023-05-21T15:33:16;2.30;;;1.80;;
45867;SDS011;31582;45.490;7.860;2023-05-21T15:35:43;2.50;;;1.98;;
45867;SDS011;31582;45.490;7.860;2023-05-21T15:38:10;2.83;;;1.95;;
45867;SDS011;31582;45.490;7.860;2023-05-21T15:40:38;2.58;;;2.25;;
45867;SDS011;31582;45.490;7.860;2023-05-21T15:43:06;4.00;;;2.70;;
45867;SDS011;31582;45.490;7.860;2023-05-21T15:45:33;2.85;;;2.35;;
45867;SDS011;31582;45.490;7.860;2023-05-21T15:48:00;2.75;;;2.40;;
45867;SDS011;31582;45.490;7.860;2023-05-21T15:50:27;15.90;;;6.93;;
45867;SDS011;31582;45.490;7.860;2023-05-21T15:52:54;6.88;;;4.53;;
45867;SDS011;31582;45.490;7.860;2023-05-21T15:55:21;3.38;;;2.17;;
45867;SDS011;31582;45.490;7.860;2023-05-21T15:57:49;2.50;;;1.73;;
45867;SDS011;31582;45.490;7.860;2023-05-21T16:00:15;2.37;;;2.17;;
45867;SDS011;31582;45.490;7.860;2023-05-21T16:02:42;1.95;;;1.70;;
45867;SDS011;31582;45.490;7.860;2023-05-21T16:05:09;2.55;;;1.92;;
45867;SDS011;31582;45.490;7.860;2023-05-21T16:07:36;2.25;;;1.98;;
45867;SDS011;31582;45.490;7.860;2023-05-21T16:10:04;3.17;;;1.75;;
45867;SDS011;31582;45.490;7.860;2023-05-21T16:12:31;1.70;;;1.30;;
45867;SDS011;31582;45.490;7.860;2023-05-21T16:14:58;2.15;;;1.50;;
45867;SDS011;31582;45.490;7.860;2023-05-21T16:17:25;2.13;;;1.52;;
45867;SDS011;31582;45.490;7.860;2023-05-21T16:19:52;2.22;;;1.67;;
45867;SDS011;31582;45.490;7.860;2023-05-21T16:22:19;2.20;;;1.70;;
45867;SDS011;31582;45.490;7.860;2023-05-21T16:24:48;2.85;;;1.58;;
45867;SDS011;31582;45.490;7.860;2023-05-21T16:27:15;1.63;;;1.40;;
45867;SDS011;31582;45.490;7.860;2023-05-21T16:29:43;2.40;;;1.48;;
45867;SDS011;31582;45.490;7.860;2023-05-21T16:32:10;3.53;;;1.50;;
45867;SDS011;31582;45.490;7.860;2023-05-21T16:34:39;1.60;;;1.38;;
45867;SDS011;31582;45.490;7.860;2023-05-21T16:37:06;1.85;;;1.65;;
45867;SDS011;31582;45.490;7.860;2023-05-21T16:39:38;3.85;;;1.95;;
45867;SDS011;31582;45.490;7.860;2023-05-21T16:42:05;2.40;;;1.40;;
45867;SDS011;31582;45.490;7.860;2023-05-21T16:44:32;2.53;;;1.60;;
45867;SDS011;31582;45.490;7.860;2023-05-21T16:46:59;2.35;;;1.85;;
45867;SDS011;31582;45.490;7.860;2023-05-21T16:49:27;3.30;;;1.70;;
45867;SDS011;31582;45.490;7.860;2023-05-21T16:51:54;2.50;;;1.77;;
45867;SDS011;31582;45.490;7.860;2023-05-21T16:54:21;1.63;;;1.40;;
45867;SDS011;31582;45.490;7.860;2023-05-21T16:56:47;2.05;;;1.48;;
45867;SDS011;31582;45.490;7.860;2023-05-21T16:59:15;1.92;;;1.45;;
45867;SDS011;31582;45.490;7.860;2023-05-21T17:01:41;2.35;;;1.75;;
45867;SDS011;31582;45.490;7.860;2023-05-21T17:04:09;2.15;;;1.55;;
45867;SDS011;31582;45.490;7.860;2023-05-21T17:06:36;2.05;;;1.55;;
45867;SDS011;31582;45.490;7.860;2023-05-21T17:09:03;2.45;;;1.58;;
45867;SDS011;31582;45.490;7.860;2023-05-21T17:11:32;2.95;;;1.63;;
45867;SDS011;31582;45.490;7.860;2023-05-21T17:14:00;2.65;;;1.60;;
45867;SDS011;31582;45.490;7.860;2023-05-21T17:16:27;3.78;;;1.65;;
45867;SDS011;31582;45.490;7.860;2023-05-21T17:18:54;2.80;;;1.65;;
45867;SDS011;31582;45.490;7.860;2023-05-21T17:21:21;2.83;;;1.42;;
45867;SDS011;31582;45.490;7.860;2023-05-21T17:23:47;2.15;;;1.80;;
45867;SDS011;31582;45.490;7.860;2023-05-21T17:26:14;1.73;;;1.45;;
45867;SDS011;31582;45.490;7.860;2023-05-21T17:28:41;2.28;;;1.75;;
45867;SDS011;31582;45.490;7.860;2023-05-21T17:31:09;2.60;;;1.70;;
45867;SDS011;31582;45.490;7.860;2023-05-21T17:33:36;2.45;;;1.33;;
45867;SDS011;31582;45.490;7.860;2023-05-21T17:36:03;1.85;;;1.73;;
45867;SDS011;31582;45.490;7.860;2023-05-21T17:38:30;2.23;;;1.40;;
45867;SDS011;31582;45.490;7.860;2023-05-21T17:40:57;3.97;;;1.80;;
45867;SDS011;31582;45.490;7.860;2023-05-21T17:43:24;1.50;;;1.40;;
45867;SDS011;31582;45.490;7.860;2023-05-21T17:45:52;1.60;;;1.50;;
45867;SDS011;31582;45.490;7.860;2023-05-21T17:48:19;2.35;;;1.42;;
45867;SDS011;31582;45.490;7.860;2023-05-21T17:50:49;2.90;;;1.60;;
45867;SDS011;31582;45.490;7.860;2023-05-21T17:53:16;1.63;;;1.35;;
45867;SDS011;31582;45.490;7.860;2023-05-21T17:55:43;2.97;;;1.40;;
45867;SDS011;31582;45.490;7.860;2023-05-21T17:58:10;1.52;;;1.40;;
45867;SDS011;31582;45.490;7.860;2023-05-21T18:00:37;2.13;;;1.63;;
45867;SDS011;31582;45.490;7.860;2023-05-21T18:03:04;1.73;;;1.53;;
45867;SDS011;31582;45.490;7.860;2023-05-21T18:05:31;2.70;;;1.83;;
45867;SDS011;31582;45.490;7.860;2023-05-21T18:07:58;1.88;;;1.73;;
45867;SDS011;31582;45.490;7.860;2023-05-21T18:10:26;2.05;;;1.70;;
45867;SDS011;31582;45.490;7.860;2023-05-21T18:12:53;1.77;;;1.42;;
45867;SDS011;31582;45.490;7.860;2023-05-21T18:15:20;1.40;;;1.30;;
45867;SDS011;31582;45.490;7.860;2023-05-21T18:17:47;2.08;;;1.30;;
45867;SDS011;31582;45.490;7.860;2023-05-21T18:20:14;1.73;;;1.40;;
45867;SDS011;31582;45.490;7.860;2023-05-21T18:22:42;2.30;;;1.35;;
45867;SDS011;31582;45.490;7.860;2023-05-21T18:25:09;1.83;;;1.23;;
45867;SDS011;31582;45.490;7.860;2023-05-21T18:27:36;3.00;;;1.40;;
45867;SDS011;31582;45.490;7.860;2023-05-21T18:30:03;3.13;;;1.52;;
45867;SDS011;31582;45.490;7.860;2023-05-21T18:32:32;2.20;;;1.50;;
45867;SDS011;31582;45.490;7.860;2023-05-21T18:34:59;3.20;;;1.63;;
45867;SDS011;31582;45.490;7.860;2023-05-21T18:37:26;2.07;;;1.70;;
45867;SDS011;31582;45.490;7.860;2023-05-21T18:39:56;3.17;;;1.85;;
45867;SDS011;31582;45.490;7.860;2023-05-21T18:42:24;2.10;;;1.60;;
45867;SDS011;31582;45.490;7.860;2023-05-21T18:44:51;2.97;;;1.88;;
45867;SDS011;31582;45.490;7.860;2023-05-21T18:47:18;2.22;;;1.50;;
45867;SDS011;31582;45.490;7.860;2023-05-21T18:49:45;2.30;;;1.67;;
45867;SDS011;31582;45.490;7.860;2023-05-21T18:52:12;2.17;;;1.60;;
45867;SDS011;31582;45.490;7.860;2023-05-21T18:54:39;2.20;;;1.80;;
45867;SDS011;31582;45.490;7.860;2023-05-21T18:57:06;1.77;;;1.67;;
45867;SDS011;31582;45.490;7.860;2023-05-21T18:59:33;1.92;;;1.40;;
45867;SDS011;31582;45.490;7.860;2023-05-21T19:01:59;2.75;;;1.60;;
45867;SDS011;31582;45.490;7.860;2023-05-21T19:04:26;2.42;;;1.52;;
45867;SDS011;31582;45.490;7.860;2023-05-21T19:06:54;1.30;;;1.20;;
45867;SDS011;31582;45.490;7.860;2023-05-21T19:09:21;3.55;;;1.50;;
45867;SDS011;31582;45.490;7.860;2023-05-21T19:11:49;3.38;;;1.80;;
45867;SDS011;31582;45.490;7.860;2023-05-21T19:14:16;2.88;;;2.03;;
45867;SDS011;31582;45.490;7.860;2023-05-21T19:16:43;1.90;;;1.60;;
45867;SDS011;31582;45.490;7.860;2023-05-21T19:19:09;1.50;;;1.38;;
45867;SDS011;31582;45.490;7.860;2023-05-21T19:21:36;2.03;;;1.40;;
45867;SDS011;31582;45.490;7.860;2023-05-21T19:24:04;3.13;;;1.60;;
45867;SDS011;31582;45.490;7.860;2023-05-21T19:26:31;2.45;;;1.48;;
45867;SDS011;31582;45.490;7.860;2023-05-21T19:28:58;2.00;;;1.52;;
45867;SDS011;31582;45.490;7.860;2023-05-21T19:31:25;2.30;;;1.97;;
45867;SDS011;31582;45.490;7.860;2023-05-21T19:33:52;1.93;;;1.73;;
45867;SDS011;31582;45.490;7.860;2023-05-21T19:36:19;2.90;;;1.60;;
45867;SDS011;31582;45.490;7.860;2023-05-21T19:38:47;2.40;;;1.60;;
45867;SDS011;31582;45.490;7.860;2023-05-21T19:41:15;1.80;;;1.60;;
45867;SDS011;31582;45.490;7.860;2023-05-21T19:43:45;2.72;;;1.92;;